sensor_id;sensor_type;location;lat;lon;timestamp;pressure;altitude;pressure_sealevel;temperature;humidity
29239;BME280;16267;48.194;11.546;2023-05-21T00:01:23;95593.34;;;17.79;62.71
29239;BME280;16267;48.194;11.546;2023-05-21T00:03:50;95598.47;;;17.77;62.31
29239;BME280;16267;48.194;11.546;2023-05-21T00:06:16;95594.72;;;17.74;62.00
29239;BME280;16267;48.194;11.546;2023-05-21T00:08:42;95589.28;;;17.74;62.76
29239;BME280;16267;48.194;11.546;2023-05-21T00:14:48;95585.97;;;17.70;62.50
29239;BME280;16267;48.194;11.546;2023-05-21T00:17:14;95589.75;;;17.64;61.50
29239;BME280;16267;48.194;11.546;2023-05-21T00:19:40;95593.69;;;17.63;61.45
29239;BME280;16267;48.194;11.546;2023-05-21T00:22:11;95583.59;;;17.54;60.46
29239;BME280;16267;48.194;11.546;2023-05-21T00:24:38;95577.75;;;17.46;60.87
29239;BME280;16267;48.194;11.546;2023-05-21T00:27:04;95585.72;;;17.50;60.89
29239;BME280;16267;48.194;11.546;2023-05-21T00:29:30;95578.50;;;17.47;60.93
29239;BME280;16267;48.194;11.546;2023-05-21T00:32:19;95582.88;;;17.44;60.66
29239;BME280;16267;48.194;11.546;2023-05-21T00:34:45;95569.28;;;17.44;61.34
29239;BME280;16267;48.194;11.546;2023-05-21T00:37:11;95573.22;;;17.43;61.14
29239;BME280;16267;48.194;11.546;2023-05-21T00:39:40;95573.66;;;17.42;61.70
29239;BME280;16267;48.194;11.546;2023-05-21T00:42:05;95574.59;;;17.38;61.20
29239;BME280;16267;48.194;11.546;2023-05-21T00:44:31;95569.91;;;17.39;61.91
29239;BME280;16267;48.194;11.546;2023-05-21T00:47:02;95563.91;;;17.35;60.89
29239;BME280;16267;48.194;11.546;2023-05-21T00:49:28;95573.97;;;17.34;61.08
29239;BME280;16267;48.194;11.546;2023-05-21T00:51:55;95567.50;;;17.32;60.88
29239;BME280;16267;48.194;11.546;2023-05-21T00:54:21;95566.47;;;17.29;60.65
29239;BME280;16267;48.194;11.546;2023-05-21T00:57:19;95564.94;;;17.28;61.08
29239;BME280;16267;48.194;11.546;2023-05-21T00:59:49;95560.00;;;17.27;61.39
29239;BME280;16267;48.194;11.546;2023-05-21T01:02:16;95555.16;;;17.22;60.10
29239;BME280;16267;48.194;11.546;2023-05-21T01:04:45;95552.16;;;17.20;60.63
29239;BME280;16267;48.194;11.546;2023-05-21T01:07:11;95558.94;;;17.15;59.92
29239;BME280;16267;48.194;11.546;2023-05-21T01:09:39;95556.69;;;17.13;60.14
29239;BME280;16267;48.194;11.546;2023-05-21T01:12:07;95559.09;;;17.11;60.37
29239;BME280;16267;48.194;11.546;2023-05-21T01:14:35;95561.03;;;17.11;60.77
29239;BME280;16267;48.194;11.546;2023-05-21T01:17:03;95559.56;;;17.10;61.12
29239;BME280;16267;48.194;11.546;2023-05-21T01:19:29;95561.50;;;17.09;61.05
29239;BME280;16267;48.194;11.546;2023-05-21T01:22:05;95563.44;;;17.09;61.29
29239;BME280;16267;48.194;11.546;2023-05-21T01:24:36;95563.63;;;17.05;60.77
29239;BME280;16267;48.194;11.546;2023-05-21T01:27:03;95559.38;;;17.04;60.26
29239;BME280;16267;48.194;11.546;2023-05-21T01:29:32;95557.13;;;17.03;61.25
29239;BME280;16267;48.194;11.546;2023-05-21T01:32:15;95557.56;;;17.01;61.31
29239;BME280;16267;48.194;11.546;2023-05-21T01:34:54;95562.25;;;17.01;61.50
29239;BME280;16267;48.194;11.546;2023-05-21T01:38:03;95562.41;;;16.97;61.07
29239;BME280;16267;48.194;11.546;2023-05-21T01:44:06;95552.00;;;16.95;61.37
29239;BME280;16267;48.194;11.546;2023-05-21T01:46:34;95553.22;;;16.94;61.31
29239;BME280;16267;48.194;11.546;2023-05-21T01:49:01;95557.59;;;16.92;60.74
29239;BME280;16267;48.194;11.546;2023-05-21T01:51:29;95538.03;;;16.88;60.47
29239;BME280;16267;48.194;11.546;2023-05-21T01:53:55;95537.41;;;16.84;60.00
29239;BME280;16267;48.194;11.546;2023-05-21T01:56:21;95542.50;;;16.82;60.13
29239;BME280;16267;48.194;11.546;2023-05-21T01:58:51;95536.81;;;16.80;60.59
29239;BME280;16267;48.194;11.546;2023-05-21T02:01:17;95543.88;;;16.77;59.93
29239;BME280;16267;48.194;11.546;2023-05-21T02:03:42;95545.03;;;16.76;60.13
29239;BME280;16267;48.194;11.546;2023-05-21T02:06:08;95549.56;;;16.70;58.71
29239;BME280;16267;48.194;11.546;2023-05-21T02:08:34;95550.31;;;16.61;57.85
29239;BME280;16267;48.194;11.546;2023-05-21T02:10:59;95552.28;;;16.61;59.10
29239;BME280;16267;48.194;11.546;2023-05-21T02:13:25;95544.59;;;16.59;59.17
29239;BME280;16267;48.194;11.546;2023-05-21T02:15:51;95546.53;;;16.59;59.47
29239;BME280;16267;48.194;11.546;2023-05-21T02:18:19;95542.78;;;16.56;59.13
29239;BME280;16267;48.194;11.546;2023-05-21T02:20:46;95539.31;;;16.56;59.61
29239;BME280;16267;48.194;11.546;2023-05-21T02:23:12;95545.47;;;16.56;59.52
29239;BME280;16267;48.194;11.546;2023-05-21T02:25:37;95534.34;;;16.54;59.94
29239;BME280;16267;48.194;11.546;2023-05-21T02:28:04;95536.75;;;16.52;59.63
29239;BME280;16267;48.194;11.546;2023-05-21T02:30:31;95539.91;;;16.50;59.73
29239;BME280;16267;48.194;11.546;2023-05-21T02:32:57;95541.88;;;16.50;59.65
29239;BME280;16267;48.194;11.546;2023-05-21T02:35:23;95534.97;;;16.49;59.77
29239;BME280;16267;48.194;11.546;2023-05-21T02:37:49;95538.09;;;16.47;59.58
29239;BME280;16267;48.194;11.546;2023-05-21T02:40:15;95540.06;;;16.47;59.65
29239;BME280;16267;48.194;11.546;2023-05-21T02:42:41;95543.66;;;16.44;59.23
29239;BME280;16267;48.194;11.546;2023-05-21T02:45:09;95549.09;;;16.44;59.36
29239;BME280;16267;48.194;11.546;2023-05-21T02:47:35;95548.78;;;16.42;59.47
29239;BME280;16267;48.194;11.546;2023-05-21T02:50:04;95548.47;;;16.40;59.77
29239;BME280;16267;48.194;11.546;2023-05-21T02:52:31;95538.84;;;16.39;59.47
29239;BME280;16267;48.194;11.546;2023-05-21T02:54:56;95544.69;;;16.37;60.12
29239;BME280;16267;48.194;11.546;2023-05-21T02:57:22;95541.25;;;16.37;60.41
29239;BME280;16267;48.194;11.546;2023-05-21T02:59:48;95539.44;;;16.34;59.87
29239;BME280;16267;48.194;11.546;2023-05-21T03:02:16;95543.03;;;16.31;59.92
29239;BME280;16267;48.194;11.546;2023-05-21T03:04:42;95540.03;;;16.28;60.07
29239;BME280;16267;48.194;11.546;2023-05-21T03:07:12;95540.91;;;16.25;59.91
29239;BME280;16267;48.194;11.546;2023-05-21T03:09:42;95543.78;;;16.22;60.17
29239;BME280;16267;48.194;11.546;2023-05-21T03:12:08;95537.59;;;16.21;60.40
29239;BME280;16267;48.194;11.546;2023-05-21T03:14:34;95538.78;;;16.20;60.66
29239;BME280;16267;48.194;11.546;2023-05-21T03:17:00;95542.72;;;16.19;60.82
29239;BME280;16267;48.194;11.546;2023-05-21T03:19:31;95538.94;;;16.17;60.47
29239;BME280;16267;48.194;11.546;2023-05-21T03:22:00;95533.53;;;16.17;60.84
29239;BME280;16267;48.194;11.546;2023-05-21T03:24:27;95530.50;;;16.15;61.12
29239;BME280;16267;48.194;11.546;2023-05-21T03:26:55;95537.88;;;16.14;60.78
29239;BME280;16267;48.194;11.546;2023-05-21T03:29:20;95531.72;;;16.14;60.52
29239;BME280;16267;48.194;11.546;2023-05-21T03:31:46;95536.06;;;16.11;60.85
29239;BME280;16267;48.194;11.546;2023-05-21T03:34:12;95533.78;;;16.10;60.45
29239;BME280;16267;48.194;11.546;2023-05-21T03:36:38;95535.00;;;16.09;60.85
29239;BME280;16267;48.194;11.546;2023-05-21T03:39:03;95526.56;;;16.06;60.90
29239;BME280;16267;48.194;11.546;2023-05-21T03:41:29;95533.19;;;16.05;60.95
29239;BME280;16267;48.194;11.546;2023-05-21T03:43:55;95531.66;;;16.04;61.11
29239;BME280;16267;48.194;11.546;2023-05-21T03:46:21;95533.63;;;16.04;61.42
29239;BME280;16267;48.194;11.546;2023-05-21T03:48:47;95528.69;;;16.02;61.33
29239;BME280;16267;48.194;11.546;2023-05-21T03:51:12;95530.63;;;16.02;61.41
29239;BME280;16267;48.194;11.546;2023-05-21T03:53:38;95528.78;;;15.99;61.40
29239;BME280;16267;48.194;11.546;2023-05-21T03:56:04;95528.78;;;15.99;61.21
29239;BME280;16267;48.194;11.546;2023-05-21T03:58:30;95531.50;;;15.99;61.60
29239;BME280;16267;48.194;11.546;2023-05-21T04:00:56;95522.34;;;15.96;61.24
29239;BME280;16267;48.194;11.546;2023-05-21T04:03:21;95526.97;;;15.96;61.40
29239;BME280;16267;48.194;11.546;2023-05-21T04:05:47;95530.47;;;15.96;61.56
29239;BME280;16267;48.194;11.546;2023-05-21T04:08:14;95529.41;;;15.94;61.17
29239;BME280;16267;48.194;11.546;2023-05-21T04:10:40;95533.59;;;15.95;61.96
29239;BME280;16267;48.194;11.546;2023-05-21T04:13:06;95533.28;;;15.93;62.15
29239;BME280;16267;48.194;11.546;2023-05-21T04:15:31;95530.59;;;15.93;62.20
29239;BME280;16267;48.194;11.546;2023-05-21T04:18:01;95534.50;;;15.92;61.72
29239;BME280;16267;48.194;11.546;2023-05-21T04:20:27;95539.44;;;15.93;61.87
29239;BME280;16267;48.194;11.546;2023-05-21T04:22:52;95532.53;;;15.92;61.67
29239;BME280;16267;48.194;11.546;2023-05-21T04:25:18;95531.78;;;15.92;61.71
29239;BME280;16267;48.194;11.546;2023-05-21T04:27:47;95534.50;;;15.92;61.70
29239;BME280;16267;48.194;11.546;2023-05-21T04:30:14;95539.44;;;15.93;61.41
29239;BME280;16267;48.194;11.546;2023-05-21T04:32:40;95544.13;;;15.93;61.08
29239;BME280;16267;48.194;11.546;2023-05-21T04:35:07;95541.41;;;15.93;60.85
29239;BME280;16267;48.194;11.546;2023-05-21T04:37:33;95550.28;;;15.93;61.46
29239;BME280;16267;48.194;11.546;2023-05-21T04:40:02;95540.97;;;15.94;61.76
29239;BME280;16267;48.194;11.546;2023-05-21T04:42:27;95545.66;;;15.94;61.81
29239;BME280;16267;48.194;11.546;2023-05-21T04:44:54;95536.75;;;15.93;61.85
29239;BME280;16267;48.194;11.546;2023-05-21T04:47:20;95538.69;;;15.93;61.68
29239;BME280;16267;48.194;11.546;2023-05-21T04:49:46;95547.56;;;15.93;61.43
29239;BME280;16267;48.194;11.546;2023-05-21T04:52:12;95550.59;;;15.95;61.88
29239;BME280;16267;48.194;11.546;2023-05-21T04:54:38;95564.44;;;15.97;61.98
29239;BME280;16267;48.194;11.546;2023-05-21T04:57:07;95558.56;;;15.99;62.06
29239;BME280;16267;48.194;11.546;2023-05-21T04:59:33;95551.50;;;16.01;61.83
29239;BME280;16267;48.194;11.546;2023-05-21T05:02:00;95551.09;;;16.03;61.73
29239;BME280;16267;48.194;11.546;2023-05-21T05:04:25;95553.31;;;16.04;61.48
29239;BME280;16267;48.194;11.546;2023-05-21T05:06:51;95551.41;;;16.05;61.15
29239;BME280;16267;48.194;11.546;2023-05-21T05:09:18;95551.25;;;16.09;61.61
29239;BME280;16267;48.194;11.546;2023-05-21T05:11:45;95547.34;;;16.10;61.38
29239;BME280;16267;48.194;11.546;2023-05-21T05:14:11;95544.94;;;16.12;61.14
29239;BME280;16267;48.194;11.546;2023-05-21T05:16:37;95549.59;;;16.11;61.27
29239;BME280;16267;48.194;11.546;2023-05-21T05:19:02;95551.84;;;16.13;61.26
29239;BME280;16267;48.194;11.546;2023-05-21T05:21:28;95553.69;;;16.16;61.23
29239;BME280;16267;48.194;11.546;2023-05-21T05:23:54;95547.81;;;16.17;61.27
29239;BME280;16267;48.194;11.546;2023-05-21T05:26:19;95551.59;;;16.20;61.40
29239;BME280;16267;48.194;11.546;2023-05-21T05:28:46;95558.81;;;16.23;61.76
29239;BME280;16267;48.194;11.546;2023-05-21T05:31:12;95565.59;;;16.27;61.33
29239;BME280;16267;48.194;11.546;2023-05-21T05:33:37;95560.50;;;16.30;61.35
29239;BME280;16267;48.194;11.546;2023-05-21T05:36:03;95558.81;;;16.32;61.17
29239;BME280;16267;48.194;11.546;2023-05-21T05:38:29;95560.66;;;16.35;61.46
29239;BME280;16267;48.194;11.546;2023-05-21T05:40:55;95557.06;;;16.38;61.51
29239;BME280;16267;48.194;11.546;2023-05-21T05:43:21;95557.66;;;16.42;61.56
29239;BME280;16267;48.194;11.546;2023-05-21T05:45:47;95550.16;;;16.46;61.75
29239;BME280;16267;48.194;11.546;2023-05-21T05:48:12;95552.72;;;16.50;61.51
29239;BME280;16267;48.194;11.546;2023-05-21T05:50:38;95556.00;;;16.54;61.48
29239;BME280;16267;48.194;11.546;2023-05-21T05:53:04;95551.97;;;16.59;61.81
29239;BME280;16267;48.194;11.546;2023-05-21T05:55:29;95560.72;;;16.63;61.73
29239;BME280;16267;48.194;11.546;2023-05-21T05:57:55;95562.06;;;16.67;61.73
29239;BME280;16267;48.194;11.546;2023-05-21T06:00:21;95561.91;;;16.71;61.59
29239;BME280;16267;48.194;11.546;2023-05-21T06:02:47;95560.25;;;16.73;61.48
29239;BME280;16267;48.194;11.546;2023-05-21T06:05:13;95560.91;;;16.78;61.62
29239;BME280;16267;48.194;11.546;2023-05-21T06:07:40;95565.41;;;16.81;60.99
29239;BME280;16267;48.194;11.546;2023-05-21T06:10:06;95564.50;;;16.84;60.65
29239;BME280;16267;48.194;11.546;2023-05-21T06:12:33;95557.00;;;16.88;60.92
29239;BME280;16267;48.194;11.546;2023-05-21T06:14:59;95567.69;;;16.91;60.72
29239;BME280;16267;48.194;11.546;2023-05-21T06:17:25;95566.34;;;16.96;61.17
29239;BME280;16267;48.194;11.546;2023-05-21T06:19:50;95561.50;;;17.00;60.90
29239;BME280;16267;48.194;11.546;2023-05-21T06:22:19;95567.50;;;17.04;61.20
29239;BME280;16267;48.194;11.546;2023-05-21T06:24:45;95563.00;;;17.10;61.57
29239;BME280;16267;48.194;11.546;2023-05-21T06:27:11;95563.59;;;17.14;61.72
29239;BME280;16267;48.194;11.546;2023-05-21T06:29:37;95558.31;;;17.20;61.63
29239;BME280;16267;48.194;11.546;2023-05-21T06:32:07;95563.44;;;17.27;61.41
29239;BME280;16267;48.194;11.546;2023-05-21T06:34:33;95554.22;;;17.34;62.06
29239;BME280;16267;48.194;11.546;2023-05-21T06:36:59;95560.53;;;17.40;60.82
29239;BME280;16267;48.194;11.546;2023-05-21T06:39:25;95558.75;;;17.46;60.19
29239;BME280;16267;48.194;11.546;2023-05-21T06:41:52;95561.13;;;17.53;59.65
29239;BME280;16267;48.194;11.546;2023-05-21T06:44:17;95562.50;;;17.58;61.22
29239;BME280;16267;48.194;11.546;2023-05-21T06:46:43;95559.44;;;17.65;60.39
29239;BME280;16267;48.194;11.546;2023-05-21T06:49:10;95563.66;;;17.66;58.66
29239;BME280;16267;48.194;11.546;2023-05-21T06:51:38;95559.44;;;17.74;58.87
29239;BME280;16267;48.194;11.546;2023-05-21T06:54:04;95562.88;;;17.84;58.37
29239;BME280;16267;48.194;11.546;2023-05-21T06:56:30;95564.22;;;17.89;57.01
29239;BME280;16267;48.194;11.546;2023-05-21T06:58:55;95561.94;;;17.96;57.59
29239;BME280;16267;48.194;11.546;2023-05-21T07:01:24;95553.31;;;18.07;58.20
29239;BME280;16267;48.194;11.546;2023-05-21T07:03:50;95554.75;;;18.17;57.43
29239;BME280;16267;48.194;11.546;2023-05-21T07:06:16;95560.91;;;18.27;56.51
29239;BME280;16267;48.194;11.546;2023-05-21T07:08:42;95560.53;;;18.34;55.90
29239;BME280;16267;48.194;11.546;2023-05-21T07:11:08;95566.09;;;18.40;55.06
29239;BME280;16267;48.194;11.546;2023-05-21T07:13:35;95563.34;;;18.49;55.79
29239;BME280;16267;48.194;11.546;2023-05-21T07:16:01;95561.78;;;18.57;55.19
29239;BME280;16267;48.194;11.546;2023-05-21T07:18:26;95557.66;;;18.62;55.46
29239;BME280;16267;48.194;11.546;2023-05-21T07:20:52;95562.28;;;18.70;53.67
29239;BME280;16267;48.194;11.546;2023-05-21T07:23:18;95556.41;;;18.72;53.45
29239;BME280;16267;48.194;11.546;2023-05-21T07:25:45;95555.50;;;18.75;52.47
29239;BME280;16267;48.194;11.546;2023-05-21T07:28:12;95559.84;;;18.82;52.89
29239;BME280;16267;48.194;11.546;2023-05-21T07:30:37;95564.72;;;18.92;53.61
29239;BME280;16267;48.194;11.546;2023-05-21T07:33:03;95564.38;;;19.00;53.08
29239;BME280;16267;48.194;11.546;2023-05-21T07:35:29;95562.81;;;19.08;52.79
29239;BME280;16267;48.194;11.546;2023-05-21T07:37:55;95575.75;;;19.13;52.00
29239;BME280;16267;48.194;11.546;2023-05-21T07:40:21;95576.31;;;19.17;52.04
29239;BME280;16267;48.194;11.546;2023-05-21T07:42:48;95569.94;;;19.20;50.81
29239;BME280;16267;48.194;11.546;2023-05-21T07:45:13;95558.72;;;19.27;51.05
29239;BME280;16267;48.194;11.546;2023-05-21T07:47:39;95561.53;;;19.33;50.37
29239;BME280;16267;48.194;11.546;2023-05-21T07:50:05;95563.88;;;19.40;51.64
29239;BME280;16267;48.194;11.546;2023-05-21T07:52:31;95561.34;;;19.51;51.03
29239;BME280;16267;48.194;11.546;2023-05-21T07:54:58;95561.91;;;19.55;50.73
29239;BME280;16267;48.194;11.546;2023-05-21T07:57:23;95554.50;;;19.56;50.44
29239;BME280;16267;48.194;11.546;2023-05-21T07:59:49;95561.72;;;19.59;50.45
29239;BME280;16267;48.194;11.546;2023-05-21T08:02:15;95566.25;;;19.62;50.06
29239;BME280;16267;48.194;11.546;2023-05-21T08:04:44;95567.44;;;19.61;50.55
29239;BME280;16267;48.194;11.546;2023-05-21T08:07:10;95567.44;;;19.61;49.37
29239;BME280;16267;48.194;11.546;2023-05-21T08:09:44;95576.78;;;19.69;50.57
29239;BME280;16267;48.194;11.546;2023-05-21T08:12:10;95578.09;;;19.74;50.87
29239;BME280;16267;48.194;11.546;2023-05-21T08:14:41;95573.78;;;19.82;51.05
29239;BME280;16267;48.194;11.546;2023-05-21T08:17:08;95575.84;;;19.87;51.19
29239;BME280;16267;48.194;11.546;2023-05-21T08:19:35;95577.13;;;19.92;50.65
29239;BME280;16267;48.194;11.546;2023-05-21T08:22:01;95581.91;;;19.97;51.04
29239;BME280;16267;48.194;11.546;2023-05-21T08:24:29;95579.75;;;20.01;50.95
29239;BME280;16267;48.194;11.546;2023-05-21T08:26:54;95583.03;;;20.05;50.83
29239;BME280;16267;48.194;11.546;2023-05-21T08:29:21;95587.34;;;20.12;51.17
29239;BME280;16267;48.194;11.546;2023-05-21T08:31:47;95589.38;;;20.17;51.47
29239;BME280;16267;48.194;11.546;2023-05-21T08:34:12;95589.97;;;20.21;51.18
29239;BME280;16267;48.194;11.546;2023-05-21T08:36:38;95588.28;;;20.23;51.19
29239;BME280;16267;48.194;11.546;2023-05-21T08:39:07;95590.03;;;20.26;51.43
29239;BME280;16267;48.194;11.546;2023-05-21T08:41:37;95590.13;;;20.32;51.06
29239;BME280;16267;48.194;11.546;2023-05-21T08:44:10;95592.09;;;20.32;50.54
29239;BME280;16267;48.194;11.546;2023-05-21T08:46:39;95590.66;;;20.36;51.18
29239;BME280;16267;48.194;11.546;2023-05-21T08:49:11;95591.69;;;20.39;51.31
29239;BME280;16267;48.194;11.546;2023-05-21T08:51:54;95590.75;;;20.42;50.80
29239;BME280;16267;48.194;11.546;2023-05-21T08:54:21;95590.81;;;20.47;51.02
29239;BME280;16267;48.194;11.546;2023-05-21T08:56:48;95589.88;;;20.50;52.39
29239;BME280;16267;48.194;11.546;2023-05-21T08:59:16;95588.19;;;20.53;51.99
29239;BME280;16267;48.194;11.546;2023-05-21T09:01:44;95587.25;;;20.56;52.79
29239;BME280;16267;48.194;11.546;2023-05-21T09:04:14;95597.97;;;20.60;52.27
29239;BME280;16267;48.194;11.546;2023-05-21T09:06:41;95588.34;;;20.64;52.70
29239;BME280;16267;48.194;11.546;2023-05-21T09:09:26;95602.31;;;20.72;52.89
29239;BME280;16267;48.194;11.546;2023-05-21T09:11:53;95595.25;;;20.80;52.57
29239;BME280;16267;48.194;11.546;2023-05-21T09:14:20;95588.91;;;20.89;52.23
29239;BME280;16267;48.194;11.546;2023-05-21T09:16:46;95589.75;;;20.95;52.63
29239;BME280;16267;48.194;11.546;2023-05-21T09:19:13;95588.56;;;21.02;52.57
29239;BME280;16267;48.194;11.546;2023-05-21T09:21:38;95589.38;;;21.08;51.66
29239;BME280;16267;48.194;11.546;2023-05-21T09:24:05;95580.78;;;21.15;51.57
29239;BME280;16267;48.194;11.546;2023-05-21T09:26:33;95585.28;;;21.18;52.08
29239;BME280;16267;48.194;11.546;2023-05-21T09:28:59;95587.84;;;21.27;51.72
29239;BME280;16267;48.194;11.546;2023-05-21T09:31:26;95591.97;;;21.37;51.72
29239;BME280;16267;48.194;11.546;2023-05-21T09:33:52;95585.13;;;21.48;53.09
29239;BME280;16267;48.194;11.546;2023-05-21T09:36:19;95587.69;;;21.57;51.86
29239;BME280;16267;48.194;11.546;2023-05-21T09:38:47;95587.50;;;21.66;50.74
29239;BME280;16267;48.194;11.546;2023-05-21T09:41:13;95587.59;;;21.77;51.30
29239;BME280;16267;48.194;11.546;2023-05-21T09:43:42;95580.25;;;21.89;50.86
29239;BME280;16267;48.194;11.546;2023-05-21T09:46:09;95578.09;;;21.99;50.22
29239;BME280;16267;48.194;11.546;2023-05-21T09:48:37;95578.94;;;22.11;49.43
29239;BME280;16267;48.194;11.546;2023-05-21T09:51:22;95578.53;;;22.18;49.08
29239;BME280;16267;48.194;11.546;2023-05-21T09:53:50;95581.81;;;22.27;49.14
29239;BME280;16267;48.194;11.546;2023-05-21T09:56:26;95578.84;;;22.31;47.61
29239;BME280;16267;48.194;11.546;2023-05-21T09:59:01;95578.13;;;22.36;48.10
29239;BME280;16267;48.194;11.546;2023-05-21T10:01:31;95581.16;;;22.44;48.03
29239;BME280;16267;48.194;11.546;2023-05-21T10:04:05;95579.19;;;22.50;48.13
29239;BME280;16267;48.194;11.546;2023-05-21T10:06:37;95574.78;;;22.58;47.73
29239;BME280;16267;48.194;11.546;2023-05-21T10:09:09;95573.84;;;22.67;47.60
29239;BME280;16267;48.194;11.546;2023-05-21T10:11:36;95570.16;;;22.81;48.20
29239;BME280;16267;48.194;11.546;2023-05-21T10:14:20;95567.78;;;23.00;48.11
29239;BME280;16267;48.194;11.546;2023-05-21T10:16:47;95567.34;;;23.19;48.16
29239;BME280;16267;48.194;11.546;2023-05-21T10:19:14;95553.44;;;23.33;47.22
29239;BME280;16267;48.194;11.546;2023-05-21T10:21:41;95563.91;;;23.46;47.00
29239;BME280;16267;48.194;11.546;2023-05-21T10:24:10;95561.69;;;23.56;46.81
29239;BME280;16267;48.194;11.546;2023-05-21T10:26:37;95557.22;;;23.64;47.39
29239;BME280;16267;48.194;11.546;2023-05-21T10:29:04;95557.22;;;23.70;43.14
29239;BME280;16267;48.194;11.546;2023-05-21T10:31:30;95559.22;;;23.75;41.47
29239;BME280;16267;48.194;11.546;2023-05-21T10:33:58;95549.78;;;23.81;41.69
29239;BME280;16267;48.194;11.546;2023-05-21T10:36:25;95549.53;;;23.85;40.30
29239;BME280;16267;48.194;11.546;2023-05-21T10:38:56;95549.50;;;23.91;41.69
29239;BME280;16267;48.194;11.546;2023-05-21T10:41:23;95543.28;;;23.96;40.71
29239;BME280;16267;48.194;11.546;2023-05-21T10:44:15;95540.06;;;23.97;38.47
29239;BME280;16267;48.194;11.546;2023-05-21T10:47:19;95543.53;;;24.03;38.38
29239;BME280;16267;48.194;11.546;2023-05-21T10:59:41;95545.75;;;24.33;38.47
29239;BME280;16267;48.194;11.546;2023-05-21T11:02:11;95548.47;;;24.39;38.43
29239;BME280;16267;48.194;11.546;2023-05-21T11:04:38;95544.97;;;24.44;37.65
29239;BME280;16267;48.194;11.546;2023-05-21T11:07:07;95544.72;;;24.47;37.82
29239;BME280;16267;48.194;11.546;2023-05-21T11:09:32;95552.19;;;24.47;37.52
29239;BME280;16267;48.194;11.546;2023-05-21T11:11:59;95548.97;;;24.48;35.47
29239;BME280;16267;48.194;11.546;2023-05-21T11:14:39;95548.97;;;24.48;35.80
29239;BME280;16267;48.194;11.546;2023-05-21T11:17:21;95549.22;;;24.51;36.51
29239;BME280;16267;48.194;11.546;2023-05-21T11:20:06;95555.19;;;24.49;34.72
29239;BME280;16267;48.194;11.546;2023-05-21T11:22:34;95551.94;;;24.51;34.39
29239;BME280;16267;48.194;11.546;2023-05-21T11:25:01;95545.47;;;24.54;33.93
29239;BME280;16267;48.194;11.546;2023-05-21T11:27:37;95548.69;;;24.58;34.28
29239;BME280;16267;48.194;11.546;2023-05-21T11:30:15;95552.66;;;24.62;33.18
29239;BME280;16267;48.194;11.546;2023-05-21T11:38:09;95544.88;;;24.78;34.37
29239;BME280;16267;48.194;11.546;2023-05-21T11:40:35;95539.38;;;24.83;35.30
29239;BME280;16267;48.194;11.546;2023-05-21T11:43:01;95543.84;;;24.86;34.97
29239;BME280;16267;48.194;11.546;2023-05-21T11:45:31;95542.84;;;24.89;35.09
29239;BME280;16267;48.194;11.546;2023-05-21T11:47:57;95546.28;;;24.96;35.52
29239;BME280;16267;48.194;11.546;2023-05-21T11:50:24;95536.53;;;25.00;36.02
29239;BME280;16267;48.194;11.546;2023-05-21T11:52:51;95536.75;;;25.08;36.06
29239;BME280;16267;48.194;11.546;2023-05-21T11:55:23;95536.97;;;25.15;37.99
29239;BME280;16267;48.194;11.546;2023-05-21T11:57:52;95532.72;;;25.20;36.79
29239;BME280;16267;48.194;11.546;2023-05-21T12:00:19;95537.44;;;25.25;37.20
29239;BME280;16267;48.194;11.546;2023-05-21T12:02:50;95530.16;;;25.33;35.91
29239;BME280;16267;48.194;11.546;2023-05-21T12:05:16;95531.59;;;25.40;36.29
29239;BME280;16267;48.194;11.546;2023-05-21T12:07:46;95532.53;;;25.48;36.46
29239;BME280;16267;48.194;11.546;2023-05-21T12:10:13;95523.22;;;25.57;35.27
29239;BME280;16267;48.194;11.546;2023-05-21T12:12:39;95526.69;;;25.63;35.31
29239;BME280;16267;48.194;11.546;2023-05-21T12:15:05;95526.91;;;25.65;34.19
29239;BME280;16267;48.194;11.546;2023-05-21T12:17:32;95523.88;;;25.69;34.45
29239;BME280;16267;48.194;11.546;2023-05-21T12:19:58;95533.63;;;25.70;33.42
29239;BME280;16267;48.194;11.546;2023-05-21T12:22:26;95523.38;;;25.70;32.32
29239;BME280;16267;48.194;11.546;2023-05-21T12:24:56;95528.88;;;25.70;33.20
29239;BME280;16267;48.194;11.546;2023-05-21T12:27:23;95527.13;;;25.73;32.90
29239;BME280;16267;48.194;11.546;2023-05-21T12:29:50;95524.81;;;25.77;33.01
29239;BME280;16267;48.194;11.546;2023-05-21T12:32:16;95516.31;;;25.80;33.07
29239;BME280;16267;48.194;11.546;2023-05-21T12:34:47;95517.31;;;25.83;31.94
29239;BME280;16267;48.194;11.546;2023-05-21T12:37:24;95524.53;;;25.86;32.99
29239;BME280;16267;48.194;11.546;2023-05-21T12:39:53;95511.25;;;25.90;32.26
29239;BME280;16267;48.194;11.546;2023-05-21T12:42:26;95521.75;;;25.92;32.02
29239;BME280;16267;48.194;11.546;2023-05-21T12:44:55;95517.44;;;25.96;32.84
29239;BME280;16267;48.194;11.546;2023-05-21T12:47:26;95509.91;;;26.02;33.12
29239;BME280;16267;48.194;11.546;2023-05-21T12:49:55;95517.84;;;26.06;31.75
29239;BME280;16267;48.194;11.546;2023-05-21T12:52:23;95522.09;;;26.07;32.23
29239;BME280;16267;48.194;11.546;2023-05-21T12:54:51;95521.59;;;26.09;31.94
29239;BME280;16267;48.194;11.546;2023-05-21T12:57:24;95514.31;;;26.11;31.53
29239;BME280;16267;48.194;11.546;2023-05-21T12:59:58;95517.56;;;26.10;31.76
29239;BME280;16267;48.194;11.546;2023-05-21T13:02:39;95507.53;;;26.12;32.40
29239;BME280;16267;48.194;11.546;2023-05-21T13:05:08;95517.28;;;26.13;32.32
29239;BME280;16267;48.194;11.546;2023-05-21T13:07:38;95519.53;;;26.15;32.43
29239;BME280;16267;48.194;11.546;2023-05-21T13:10:05;95520.50;;;26.17;31.52
29239;BME280;16267;48.194;11.546;2023-05-21T13:12:32;95520.25;;;26.15;32.48
29239;BME280;16267;48.194;11.546;2023-05-21T13:15:01;95512.75;;;26.16;32.40
29239;BME280;16267;48.194;11.546;2023-05-21T13:17:27;95510.00;;;26.16;32.22